This is the latest recevied weather packets stored in our database for station/object 9M4RBN-3. If no packets are shown the sender has not sent any weather packets the latest 10 day(s).
| Time | Temp. | Humidity | Pressure | Rain* | Wind** | Luminosity | Snow |
|---|---|---|---|---|---|---|---|
| 1787835846 | 26.11° C | 48% | 1017.4 hPa | - | - | - | - |
| 1787834946 | 26.11° C | 53% | 1017.2 hPa | - | - | - | - |
| 1787834046 | 26.11° C | 56% | 1016.8 hPa | - | - | - | - |
| 1787833146 | 26.67° C | 51% | 1016.5 hPa | - | - | - | - |
| 1787832246 | 27.22° C | 51% | 1016.4 hPa | - | - | - | - |
| 1787831346 | 27.78° C | 69% | 1016.3 hPa | - | - | - | - |
| 1787830485 | 27.22° C | 63% | 1015.9 hPa | - | - | - | - |
| 1787830446 | 27.22° C | 63% | 1015.9 hPa | - | - | - | - |
| 1787829546 | 26.11° C | 54% | 1015.7 hPa | - | - | - | - |
| 1787828645 | 26.11° C | 58% | 1015.5 hPa | - | - | - | - |
| 1787827745 | 25.56° C | 56% | 1015.6 hPa | - | - | - | - |
| 1787826883 | 25.56° C | 41% | 1015.2 hPa | - | - | - | - |
| 1787826845 | 25.56° C | 41% | 1015.2 hPa | - | - | - | - |
| 1787825945 | 25.56° C | 40% | 1015 hPa | - | - | - | - |
| 1787825045 | 25.56° C | 40% | 1014.9 hPa | - | - | - | - |
| 1787824145 | 26.11° C | 40% | 1015.1 hPa | - | - | - | - |
| 1787823297 | 26.11° C | 40% | 1015.2 hPa | - | - | - | - |
| 1787823245 | 26.11° C | 40% | 1015.2 hPa | - | - | - | - |
| 1787822345 | 26.67° C | 42% | 1015.4 hPa | - | - | - | - |
| 1787821445 | 27.22° C | 51% | 1015.3 hPa | - | - | - | - |
| 1787820545 | 27.22° C | 58% | 1015.2 hPa | - | - | - | - |
| 1787819645 | 26.11° C | 49% | 1015.1 hPa | - | - | - | - |
| 1787818745 | 26.11° C | 50% | 1015 hPa | - | - | - | - |
| 1787817845 | 26.11° C | 51% | 1015.3 hPa | - | - | - | - |
| 1787816945 | 26.11° C | 52% | 1015.4 hPa | - | - | - | - |
* Rain since midnight (hover to see other rain measurements)
** Current wind speed in m/s (hover to see current wind gust speed)